createdAt,value
2022-07-31T00:04:17.826Z,17.68
2022-07-31T00:09:53.072Z,17.57
2022-07-31T00:14:41.068Z,17.66
2022-07-31T00:19:42.533Z,17.71
2022-07-31T00:24:44.428Z,17.70
2022-07-31T00:29:45.900Z,17.65
2022-07-31T00:34:47.330Z,17.59
2022-07-31T00:39:49.507Z,17.41
2022-07-31T00:44:52.040Z,17.53
2022-07-31T00:49:53.689Z,17.42
2022-07-31T00:54:55.267Z,17.45
2022-07-31T00:59:56.915Z,17.40
2022-07-31T01:04:58.400Z,17.61
2022-07-31T01:10:05.117Z,17.50
2022-07-31T01:15:09.254Z,17.59
2022-07-31T01:20:12.104Z,17.52
2022-07-31T01:25:31.955Z,17.32
2022-07-31T01:30:42.475Z,17.14
2022-07-31T01:35:51.917Z,17.40
2022-07-31T01:40:59.377Z,17.34
2022-07-31T01:46:03.169Z,17.47
2022-07-31T01:51:08.886Z,17.28
2022-07-31T01:56:11.225Z,17.46
2022-07-31T02:01:14.671Z,17.31
2022-07-31T02:06:19.010Z,17.23
2022-07-31T02:11:21.432Z,17.40
2022-07-31T02:16:24.748Z,17.25
2022-07-31T02:21:26.502Z,17.21
2022-07-31T02:26:32.019Z,17.22
2022-07-31T02:31:35.529Z,17.18
2022-07-31T02:36:37.296Z,17.43
2022-07-31T02:41:40.151Z,17.13
2022-07-31T02:46:44.693Z,17.36
2022-07-31T02:51:46.536Z,17.08
2022-07-31T02:56:49.191Z,17.19
2022-07-31T03:01:50.656Z,17.05
2022-07-31T03:06:53.253Z,17.09
2022-07-31T03:11:54.721Z,17.11
2022-07-31T03:16:58.406Z,17.13
2022-07-31T03:22:00.533Z,17.15
2022-07-31T03:27:02.405Z,17.06
2022-07-31T03:32:04.267Z,16.97
2022-07-31T03:37:06.078Z,17.33
2022-07-31T03:42:18.573Z,17.19
2022-07-31T03:47:21.763Z,17.11
2022-07-31T03:52:23.575Z,17.13
2022-07-31T03:57:31.104Z,17.16
2022-07-31T04:02:32.978Z,17.07
2022-07-31T04:07:34.582Z,17.17
2022-07-31T04:12:36.521Z,17.33
2022-07-31T04:17:38.294Z,17.13
2022-07-31T04:22:39.890Z,17.23
2022-07-31T04:27:48.015Z,17.04
2022-07-31T04:32:51.078Z,17.28
2022-07-31T04:37:52.525Z,17.30
2022-07-31T04:42:54.899Z,17.49
2022-07-31T04:47:56.405Z,17.33
2022-07-31T04:52:57.861Z,17.36
2022-07-31T04:57:59.298Z,17.25
2022-07-31T05:03:00.799Z,17.30
2022-07-31T05:08:02.285Z,17.31
2022-07-31T05:13:03.964Z,17.47
2022-07-31T05:18:07.654Z,17.42
2022-07-31T05:23:09.177Z,17.53
2022-07-31T05:28:10.631Z,17.50
2022-07-31T05:33:13.987Z,17.56
2022-07-31T05:38:17.909Z,17.70
2022-07-31T05:43:20.200Z,17.82
2022-07-31T05:48:22.772Z,17.56
2022-07-31T05:53:24.571Z,17.56
2022-07-31T05:58:26.070Z,17.52
2022-07-31T06:03:28.675Z,17.49
2022-07-31T06:08:30.583Z,17.51
2022-07-31T06:13:32.016Z,17.54
2022-07-31T06:18:33.644Z,17.94
2022-07-31T06:23:35.535Z,17.77
2022-07-31T06:28:47.450Z,17.80
2022-07-31T06:33:50.959Z,17.68
2022-07-31T06:38:52.712Z,17.55
2022-07-31T06:43:54.156Z,17.85
2022-07-31T06:48:55.683Z,17.82
2022-07-31T06:53:57.573Z,17.77
2022-07-31T06:58:59.409Z,17.78
2022-07-31T07:04:13.039Z,17.98
2022-07-31T07:09:54.133Z,18.26
2022-07-31T07:14:55.814Z,18.15
2022-07-31T07:19:57.444Z,18.23
2022-07-31T07:25:01.346Z,18.39
2022-07-31T07:30:03.386Z,18.45
2022-07-31T07:35:05.398Z,18.58
2022-07-31T07:40:08.771Z,18.69
2022-07-31T07:45:11.030Z,18.58
2022-07-31T07:50:13.071Z,18.71
2022-07-31T07:55:14.738Z,18.73
2022-07-31T08:00:16.510Z,18.81
2022-07-31T08:05:18.122Z,18.96
2022-07-31T08:10:20.565Z,19.13
2022-07-31T08:15:22.382Z,19.06
2022-07-31T08:20:23.978Z,19.19
2022-07-31T08:25:25.630Z,19.31
2022-07-31T08:30:33.870Z,19.26
2022-07-31T08:35:35.513Z,19.46
2022-07-31T08:40:42.648Z,19.40
2022-07-31T08:45:48.179Z,19.49
2022-07-31T08:50:53.765Z,19.88
2022-07-31T08:55:57.792Z,20.24
2022-07-31T09:00:59.880Z,20.14
2022-07-31T09:06:01.690Z,19.88
2022-07-31T09:11:09.271Z,20.20
2022-07-31T09:16:10.937Z,20.17
2022-07-31T09:21:12.588Z,20.45
2022-07-31T09:26:14.543Z,20.88
2022-07-31T09:31:16.157Z,20.98
2022-07-31T09:36:23.815Z,21.32
2022-07-31T09:41:56.716Z,21.89
2022-07-31T09:46:48.538Z,22.11
2022-07-31T09:51:50.200Z,22.45
2022-07-31T09:56:52.417Z,22.89
2022-07-31T10:01:55.543Z,23.29
2022-07-31T10:06:57.510Z,23.22
2022-07-31T10:12:01.332Z,23.39
2022-07-31T10:17:05.546Z,23.65
2022-07-31T10:22:09.990Z,23.18
2022-07-31T10:27:14.394Z,23.36
2022-07-31T10:32:16.603Z,23.02
2022-07-31T10:37:58.348Z,23.14
2022-07-31T10:43:39.389Z,23.51
2022-07-31T10:48:51.458Z,23.69
2022-07-31T10:54:01.624Z,23.55
2022-07-31T10:59:03.711Z,24.00
2022-07-31T11:04:05.280Z,23.84
2022-07-31T11:09:06.948Z,23.84
2022-07-31T11:14:08.532Z,23.81
2022-07-31T11:19:10.220Z,23.97
2022-07-31T11:24:16.076Z,24.21
2022-07-31T11:30:00.679Z,24.55
2022-07-31T11:34:54.996Z,24.77
2022-07-31T11:39:57.575Z,24.89
2022-07-31T11:45:11.155Z,25.03
2022-07-31T11:50:31.031Z,25.28
2022-07-31T11:55:43.617Z,25.53
2022-07-31T12:00:50.472Z,25.56
2022-07-31T12:05:52.844Z,25.44
2022-07-31T12:10:57.721Z,25.47
2022-07-31T12:16:09.429Z,25.37
2022-07-31T12:21:11.404Z,25.17
2022-07-31T12:26:28.275Z,25.42
2022-07-31T12:31:31.219Z,25.38
2022-07-31T12:36:32.906Z,25.24
2022-07-31T12:41:43.253Z,25.31
2022-07-31T12:46:44.871Z,25.36
2022-07-31T12:51:47.241Z,25.70
2022-07-31T12:56:48.960Z,25.49
2022-07-31T13:01:50.644Z,25.86
2022-07-31T13:06:52.311Z,25.65
2022-07-31T13:11:57.719Z,25.45
2022-07-31T13:16:59.704Z,25.57
2022-07-31T13:22:01.324Z,25.79
2022-07-31T13:27:03.220Z,25.79
2022-07-31T13:32:05.313Z,25.77
2022-07-31T13:37:07.398Z,25.59
2022-07-31T13:42:09.145Z,25.69
2022-07-31T13:47:10.783Z,25.74
2022-07-31T13:52:12.366Z,26.09
2022-07-31T13:57:14.965Z,25.92
2022-07-31T14:02:16.951Z,25.93
2022-07-31T14:07:18.821Z,26.04
2022-07-31T14:12:22.300Z,26.19
2022-07-31T14:17:24.049Z,26.14
2022-07-31T14:22:25.707Z,26.26
2022-07-31T14:27:27.286Z,26.20
2022-07-31T14:32:31.244Z,26.09
2022-07-31T14:37:32.834Z,26.13
2022-07-31T14:42:35.296Z,26.07
2022-07-31T14:47:37.329Z,25.94
2022-07-31T14:52:39.698Z,26.08
2022-07-31T14:57:42.009Z,26.06
2022-07-31T15:02:44.839Z,25.89
2022-07-31T15:07:48.179Z,25.93
2022-07-31T15:12:50.035Z,25.89
2022-07-31T15:17:51.723Z,25.89
2022-07-31T15:22:53.394Z,25.99
2022-07-31T15:27:55.010Z,25.79
2022-07-31T15:32:56.610Z,25.86
2022-07-31T15:38:02.271Z,25.76
2022-07-31T15:43:04.127Z,25.77
2022-07-31T15:48:09.804Z,25.79
2022-07-31T15:53:11.694Z,25.68
2022-07-31T15:58:13.565Z,25.62
2022-07-31T16:03:17.890Z,25.56
2022-07-31T16:08:29.169Z,25.58
2022-07-31T16:13:36.675Z,25.34
2022-07-31T16:18:38.293Z,25.33
2022-07-31T16:23:39.984Z,25.29
2022-07-31T16:28:41.609Z,25.20
2022-07-31T16:33:43.241Z,25.24
2022-07-31T16:39:17.647Z,25.06
2022-07-31T16:44:13.945Z,24.99
2022-07-31T16:49:35.951Z,25.00
2022-07-31T16:54:37.303Z,24.96
2022-07-31T16:59:56.421Z,24.85
2022-07-31T17:04:59.542Z,24.89
2022-07-31T17:10:01.115Z,24.82
2022-07-31T17:15:02.818Z,24.73
2022-07-31T17:20:05.124Z,24.64
2022-07-31T17:25:09.931Z,24.46
2022-07-31T17:30:12.483Z,24.46
2022-07-31T17:35:14.100Z,24.48
2022-07-31T17:40:40.876Z,24.46
2022-07-31T17:45:59.329Z,24.37
2022-07-31T17:51:00.362Z,24.27
2022-07-31T17:56:02.071Z,24.20
2022-07-31T18:01:03.916Z,24.29
2022-07-31T18:06:05.624Z,24.09
2022-07-31T18:11:08.354Z,23.96
2022-07-31T18:16:10.129Z,23.83
2022-07-31T18:21:12.116Z,23.60
2022-07-31T18:26:13.765Z,23.44
2022-07-31T18:31:34.656Z,23.35
2022-07-31T18:36:37.727Z,23.29
2022-07-31T18:41:39.409Z,23.06
2022-07-31T18:46:41.136Z,22.87
2022-07-31T18:51:43.604Z,22.68
2022-07-31T18:56:45.600Z,22.51
2022-07-31T19:01:47.299Z,22.38
2022-07-31T19:06:54.078Z,22.26
2022-07-31T19:11:58.499Z,22.13
2022-07-31T19:17:01.219Z,22.03
2022-07-31T19:22:04.183Z,21.90
2022-07-31T19:27:05.998Z,21.76
2022-07-31T19:32:08.070Z,21.62
2022-07-31T19:37:09.972Z,21.50
2022-07-31T19:42:12.395Z,21.42
2022-07-31T19:47:14.034Z,21.23
2022-07-31T19:52:15.765Z,21.13
2022-07-31T19:57:18.202Z,21.07
2022-07-31T20:02:20.352Z,21.01
2022-07-31T20:07:23.118Z,20.95
2022-07-31T20:12:25.360Z,20.86
2022-07-31T20:17:27.519Z,20.76
2022-07-31T20:22:29.103Z,20.60
2022-07-31T20:27:30.717Z,20.52
2022-07-31T20:32:32.459Z,20.43
2022-07-31T20:37:35.763Z,20.33
2022-07-31T20:42:37.536Z,20.21
2022-07-31T20:47:39.253Z,20.22
2022-07-31T20:52:40.930Z,20.20
2022-07-31T20:57:42.542Z,20.17
2022-07-31T21:02:44.217Z,20.15
2022-07-31T21:07:45.804Z,20.07
2022-07-31T21:12:47.386Z,20.07
2022-07-31T21:17:49.023Z,20.05
2022-07-31T21:22:50.632Z,20.01
2022-07-31T21:27:52.589Z,20.25
2022-07-31T21:32:54.579Z,20.31
2022-07-31T21:37:58.124Z,20.26
2022-07-31T21:43:01.062Z,20.14
2022-07-31T21:48:10.141Z,20.01
2022-07-31T21:53:13.251Z,19.91
2022-07-31T21:58:15.199Z,19.77
2022-07-31T22:03:16.814Z,19.67
2022-07-31T22:08:18.647Z,19.49
2022-07-31T22:13:21.269Z,19.39
2022-07-31T22:18:23.614Z,19.41
2022-07-31T22:23:28.745Z,19.35
2022-07-31T22:28:31.017Z,19.32
2022-07-31T22:33:32.684Z,19.32
2022-07-31T22:38:34.825Z,19.29
2022-07-31T22:44:10.316Z,19.21
2022-07-31T22:48:58.288Z,19.13
2022-07-31T22:54:00.020Z,19.05
2022-07-31T22:59:01.647Z,18.99
2022-07-31T23:04:03.269Z,18.86
2022-07-31T23:09:04.909Z,18.79
2022-07-31T23:14:06.557Z,18.77
2022-07-31T23:19:08.238Z,18.70
2022-07-31T23:24:10.836Z,18.58
2022-07-31T23:29:12.563Z,18.41
2022-07-31T23:34:16.996Z,18.38
2022-07-31T23:39:18.976Z,18.40
2022-07-31T23:44:25.189Z,18.38
2022-07-31T23:49:26.907Z,18.37
2022-07-31T23:54:28.525Z,18.33
2022-07-31T23:59:30.181Z,18.22
